createdAt,value
2023-07-25T00:01:17.980Z,12.63
2023-07-25T00:03:49.239Z,14.13
2023-07-25T00:06:18.936Z,10.88
2023-07-25T00:08:49.172Z,10.48
2023-07-25T00:11:17.345Z,10.43
2023-07-25T00:13:45.403Z,12.27
2023-07-25T00:16:13.525Z,10.18
2023-07-25T00:18:41.580Z,10.27
2023-07-25T00:21:09.958Z,11.00
2023-07-25T00:23:38.253Z,14.55
2023-07-25T00:26:06.290Z,10.02
2023-07-25T00:28:34.219Z,11.30
2023-07-25T00:31:11.136Z,9.85
2023-07-25T00:33:39.916Z,13.25
2023-07-25T00:36:08.206Z,15.35
2023-07-25T00:38:36.560Z,11.85
2023-07-25T00:41:04.458Z,10.25
2023-07-25T00:43:32.749Z,13.25
2023-07-25T00:46:01.086Z,14.80
2023-07-25T00:48:31.495Z,13.40
2023-07-25T00:50:59.510Z,13.70
2023-07-25T00:53:28.705Z,11.93
2023-07-25T00:55:57.444Z,15.48
2023-07-25T00:58:25.520Z,11.77
2023-07-25T01:01:04.926Z,11.45
2023-07-25T01:03:35.748Z,10.95
2023-07-25T01:06:06.628Z,13.25
2023-07-25T01:08:34.736Z,15.27
2023-07-25T01:11:02.855Z,14.35
2023-07-25T01:13:30.885Z,12.05
2023-07-25T01:15:59.256Z,11.35
2023-07-25T01:18:27.506Z,13.02
2023-07-25T01:20:56.031Z,20.00
2023-07-25T01:23:25.360Z,13.55
2023-07-25T01:25:54.286Z,17.55
2023-07-25T01:28:24.471Z,11.32
2023-07-25T01:30:52.535Z,10.75
2023-07-25T01:33:20.548Z,14.52
2023-07-25T01:35:48.561Z,13.35
2023-07-25T01:38:17.709Z,11.93
2023-07-25T01:40:45.865Z,11.77
2023-07-25T01:43:13.957Z,10.63
2023-07-25T01:45:42.161Z,12.88
2023-07-25T01:48:10.233Z,13.48
2023-07-25T01:50:38.535Z,9.57
2023-07-25T01:53:06.551Z,11.20
2023-07-25T01:55:34.771Z,14.05
2023-07-25T01:58:02.865Z,17.17
2023-07-25T02:00:30.888Z,12.98
2023-07-25T02:02:59.259Z,13.50
2023-07-25T02:05:27.474Z,12.25
2023-07-25T02:07:55.490Z,11.52
2023-07-25T02:10:23.958Z,11.30
2023-07-25T02:12:53.219Z,12.73
2023-07-25T02:15:21.430Z,9.77
2023-07-25T02:17:50.442Z,9.90
2023-07-25T02:20:18.871Z,12.48
2023-07-25T02:22:46.856Z,9.38
2023-07-25T02:25:14.857Z,10.32
2023-07-25T02:27:43.211Z,11.18
2023-07-25T02:30:12.398Z,10.23
2023-07-25T02:32:40.743Z,14.73
2023-07-25T02:35:09.161Z,11.65
2023-07-25T02:37:37.273Z,13.60
2023-07-25T02:40:06.162Z,10.15
2023-07-25T02:42:34.728Z,10.38
2023-07-25T02:45:03.542Z,15.43
2023-07-25T02:47:31.843Z,13.40
2023-07-25T02:49:59.992Z,12.23
2023-07-25T02:52:27.924Z,16.23
2023-07-25T02:54:55.941Z,14.77
2023-07-25T02:57:24.077Z,9.65
2023-07-25T02:59:52.196Z,16.92
2023-07-25T03:02:20.596Z,12.27
2023-07-25T03:04:48.640Z,10.70
2023-07-25T03:07:16.569Z,12.52
2023-07-25T03:09:45.514Z,14.63
2023-07-25T03:12:13.762Z,10.43
2023-07-25T03:14:41.736Z,9.32
2023-07-25T03:17:09.801Z,10.98
2023-07-25T03:19:37.909Z,13.93
2023-07-25T03:22:06.239Z,10.23
2023-07-25T03:24:34.383Z,9.95
2023-07-25T03:27:02.616Z,11.55
2023-07-25T03:29:30.550Z,9.82
2023-07-25T03:31:58.727Z,10.80
2023-07-25T03:34:26.834Z,11.32
2023-07-25T03:36:54.843Z,12.30
2023-07-25T03:39:22.979Z,8.27
2023-07-25T03:41:51.110Z,12.18
2023-07-25T03:44:20.604Z,13.80
2023-07-25T03:46:48.812Z,13.07
2023-07-25T03:49:17.029Z,12.45
2023-07-25T03:51:44.996Z,11.02
2023-07-25T03:54:13.173Z,10.68
2023-07-25T03:56:41.342Z,11.05
2023-07-25T03:59:09.482Z,9.70
2023-07-25T04:01:37.574Z,13.93
2023-07-25T04:04:05.922Z,12.40
2023-07-25T04:06:33.940Z,9.00
2023-07-25T04:09:03.086Z,10.93
2023-07-25T04:11:31.446Z,13.77
2023-07-25T04:13:59.722Z,10.73
2023-07-25T04:16:27.866Z,11.57
2023-07-25T04:18:55.990Z,17.17
2023-07-25T04:21:23.996Z,14.00
2023-07-25T04:23:52.180Z,12.52
2023-07-25T04:26:20.291Z,11.40
2023-07-25T04:28:49.682Z,11.82
2023-07-25T04:31:17.828Z,10.45
2023-07-25T04:33:47.621Z,11.02
2023-07-25T04:36:15.705Z,15.77
2023-07-25T04:38:43.838Z,8.95
2023-07-25T04:41:12.626Z,9.50
2023-07-25T04:43:40.728Z,13.98
2023-07-25T04:46:09.120Z,17.05
2023-07-25T04:48:37.294Z,11.73
2023-07-25T04:51:05.496Z,11.50
2023-07-25T04:53:35.213Z,11.65
2023-07-25T04:56:03.512Z,13.68
2023-07-25T04:58:31.568Z,11.60
2023-07-25T05:00:59.882Z,11.23
2023-07-25T05:03:28.416Z,12.43
2023-07-25T05:05:58.065Z,11.45
2023-07-25T05:08:26.114Z,11.07
2023-07-25T05:10:55.246Z,13.45
2023-07-25T05:13:23.726Z,11.85
2023-07-25T05:15:51.758Z,11.50
2023-07-25T05:18:20.028Z,11.45
2023-07-25T05:20:48.217Z,10.20
2023-07-25T05:23:16.295Z,11.98
2023-07-25T05:25:46.521Z,11.60
2023-07-25T05:28:15.083Z,13.30
2023-07-25T05:30:43.143Z,9.18
2023-07-25T05:33:11.420Z,12.13
2023-07-25T05:35:39.706Z,11.27
2023-07-25T05:38:09.535Z,10.88
2023-07-25T05:40:38.461Z,14.13
2023-07-25T05:43:06.727Z,9.50
2023-07-25T05:45:35.112Z,10.50
2023-07-25T05:48:03.371Z,16.02
2023-07-25T05:50:31.521Z,11.43
2023-07-25T05:52:59.851Z,10.27
2023-07-25T05:55:28.148Z,12.07
2023-07-25T05:57:56.392Z,10.07
2023-07-25T06:00:24.789Z,9.25
2023-07-25T06:02:54.046Z,12.00
2023-07-25T06:05:22.302Z,18.52
2023-07-25T06:07:50.476Z,12.38
2023-07-25T06:10:18.684Z,10.20
2023-07-25T06:12:46.921Z,8.95
2023-07-25T06:15:15.201Z,10.15
2023-07-25T06:17:43.911Z,12.23
2023-07-25T06:20:14.288Z,12.10
2023-07-25T06:22:42.441Z,9.55
2023-07-25T06:25:10.985Z,10.88
2023-07-25T06:27:39.464Z,11.88
2023-07-25T06:30:08.632Z,9.70
2023-07-25T06:32:39.128Z,12.65
2023-07-25T06:35:07.849Z,12.40
2023-07-25T06:37:37.336Z,15.40
2023-07-25T06:40:06.646Z,13.30
2023-07-25T06:42:35.058Z,10.43
2023-07-25T06:45:09.208Z,8.10
2023-07-25T06:50:06.081Z,10.57
2023-07-25T06:52:34.334Z,10.18
2023-07-25T06:55:02.448Z,9.70
2023-07-25T06:57:30.685Z,9.70
2023-07-25T06:59:58.915Z,9.60
2023-07-25T07:02:27.143Z,10.50
2023-07-25T07:04:57.281Z,9.85
2023-07-25T07:07:25.638Z,10.75
2023-07-25T07:09:53.850Z,9.60
2023-07-25T07:12:21.890Z,8.70
2023-07-25T07:14:49.881Z,14.85
2023-07-25T07:17:19.194Z,8.00
2023-07-25T07:19:47.366Z,9.93
2023-07-25T07:22:15.519Z,12.80
2023-07-25T07:24:43.646Z,9.07
2023-07-25T07:27:11.692Z,9.00
2023-07-25T07:29:39.784Z,9.38
2023-07-25T07:32:08.331Z,8.38
2023-07-25T07:34:36.292Z,8.43
2023-07-25T07:37:05.523Z,9.75
2023-07-25T07:39:33.695Z,10.85
2023-07-25T07:42:03.238Z,7.22
2023-07-25T07:44:31.520Z,10.07
2023-07-25T07:46:59.719Z,8.40
2023-07-25T07:49:27.726Z,6.55
2023-07-25T07:52:11.482Z,9.77
2023-07-25T07:54:43.608Z,8.55
2023-07-25T07:57:11.659Z,7.55
2023-07-25T07:59:39.822Z,11.63
2023-07-25T08:02:10.431Z,9.25
2023-07-25T08:04:38.755Z,8.77
2023-07-25T08:07:07.295Z,12.10
2023-07-25T08:09:36.041Z,11.77
2023-07-25T08:12:06.919Z,10.80
2023-07-25T08:17:03.416Z,7.15
2023-07-25T08:19:31.637Z,6.72
2023-07-25T08:21:59.895Z,6.93
2023-07-25T08:24:27.989Z,8.70
2023-07-25T08:26:56.145Z,7.88
2023-07-25T08:29:24.408Z,11.68
2023-07-25T08:31:52.804Z,7.40
2023-07-25T08:34:21.750Z,7.43
2023-07-25T08:36:50.475Z,8.20
2023-07-25T08:39:18.972Z,8.30
2023-07-25T08:41:57.020Z,6.55
2023-07-25T08:44:27.459Z,7.50
2023-07-25T08:46:57.726Z,7.20
2023-07-25T08:49:31.993Z,7.55
2023-07-25T08:52:02.385Z,6.70
2023-07-25T08:54:37.711Z,8.13
2023-07-25T08:57:06.957Z,6.72
2023-07-25T08:59:35.824Z,6.15
2023-07-25T09:02:05.006Z,9.85
2023-07-25T09:04:33.937Z,6.43
2023-07-25T09:07:02.398Z,8.48
2023-07-25T09:09:30.817Z,11.00
2023-07-25T09:11:59.373Z,6.72
2023-07-25T09:14:28.404Z,7.28
2023-07-25T09:16:56.681Z,6.35
2023-07-25T09:19:25.402Z,7.47
2023-07-25T09:21:54.956Z,8.77
2023-07-25T09:24:23.231Z,8.10
2023-07-25T09:26:52.806Z,8.57
2023-07-25T09:29:25.829Z,7.43
2023-07-25T09:31:54.568Z,8.57
2023-07-25T09:34:26.471Z,10.40
2023-07-25T09:36:54.936Z,11.00
2023-07-25T09:39:23.171Z,9.85
2023-07-25T09:41:52.367Z,10.60
2023-07-25T09:44:20.921Z,10.05
2023-07-25T09:46:54.435Z,11.98
2023-07-25T09:49:23.721Z,9.35
2023-07-25T09:52:04.610Z,11.07
2023-07-25T09:55:43.856Z,9.68
2023-07-25T09:58:13.518Z,11.45
2023-07-25T10:00:42.369Z,10.45
2023-07-25T10:03:11.590Z,7.93
2023-07-25T10:05:45.987Z,10.25
2023-07-25T10:08:15.535Z,10.13
2023-07-25T10:10:44.341Z,7.93
2023-07-25T10:13:12.860Z,9.40
2023-07-25T10:15:42.527Z,7.78
2023-07-25T10:18:25.445Z,9.57
2023-07-25T10:20:55.376Z,7.18
2023-07-25T10:23:35.925Z,9.55
2023-07-25T10:26:15.058Z,7.57
2023-07-25T10:28:43.749Z,12.85
2023-07-25T10:31:24.564Z,8.60
2023-07-25T10:33:59.676Z,7.43
2023-07-25T10:36:29.484Z,7.65
2023-07-25T10:39:09.643Z,6.68
2023-07-25T10:41:38.559Z,6.25
2023-07-25T10:44:07.624Z,6.57
2023-07-25T10:46:36.236Z,11.95
2023-07-25T10:49:16.055Z,7.57
2023-07-25T10:51:53.797Z,7.05
2023-07-25T10:54:25.973Z,7.18
2023-07-25T10:57:23.701Z,8.63
2023-07-25T11:00:06.666Z,6.40
2023-07-25T11:02:44.127Z,6.45
2023-07-25T11:05:15.627Z,8.77
2023-07-25T11:07:46.559Z,8.02
2023-07-25T11:13:02.146Z,8.57
2023-07-25T11:15:46.553Z,8.90
2023-07-25T11:18:16.052Z,6.97
2023-07-25T11:20:44.400Z,6.88
2023-07-25T11:23:13.046Z,7.57
2023-07-25T11:25:41.369Z,5.80
2023-07-25T11:28:10.299Z,6.43
2023-07-25T11:30:45.474Z,4.97
2023-07-25T11:33:14.439Z,9.00
2023-07-25T11:35:42.828Z,7.68
2023-07-25T11:38:11.978Z,6.13
2023-07-25T11:40:42.290Z,6.35
2023-07-25T11:43:14.829Z,5.63
2023-07-25T11:45:45.851Z,4.78
2023-07-25T11:50:50.372Z,5.25
2023-07-25T11:53:21.765Z,5.35
2023-07-25T11:55:53.860Z,6.85
2023-07-25T11:58:24.123Z,7.38
2023-07-25T12:00:55.946Z,6.80
2023-07-25T12:03:26.897Z,5.30
2023-07-25T12:06:01.117Z,4.15
2023-07-25T12:08:42.092Z,5.78
2023-07-25T12:13:56.427Z,4.75
2023-07-25T12:16:37.541Z,6.82
2023-07-25T12:19:15.338Z,5.28
2023-07-25T12:21:45.660Z,7.88
2023-07-25T12:24:17.296Z,6.35
2023-07-25T12:26:49.089Z,8.05
2023-07-25T12:29:22.669Z,5.22
2023-07-25T12:31:52.259Z,7.43
2023-07-25T12:34:22.777Z,7.40
2023-07-25T12:36:52.918Z,7.45
2023-07-25T12:39:21.482Z,5.95
2023-07-25T12:41:49.480Z,6.72
2023-07-25T12:44:19.093Z,4.55
2023-07-25T12:46:47.310Z,5.05
2023-07-25T12:49:15.585Z,6.30
2023-07-25T12:51:44.182Z,5.43
2023-07-25T12:54:12.734Z,5.18
2023-07-25T12:56:41.862Z,5.82
2023-07-25T12:59:10.938Z,7.25
2023-07-25T13:01:39.158Z,4.93
2023-07-25T13:04:07.415Z,5.43
2023-07-25T13:06:36.193Z,6.53
2023-07-25T13:09:04.826Z,4.47
2023-07-25T13:11:33.320Z,5.43
2023-07-25T13:14:02.057Z,7.18
2023-07-25T13:16:31.073Z,5.35
2023-07-25T13:18:59.209Z,5.68
2023-07-25T13:21:27.907Z,6.07
2023-07-25T13:23:55.983Z,7.28
2023-07-25T13:26:24.219Z,5.10
2023-07-25T13:28:52.749Z,4.40
2023-07-25T13:31:20.904Z,5.32
2023-07-25T13:33:49.016Z,3.85
2023-07-25T13:36:17.607Z,5.30
2023-07-25T13:38:45.888Z,5.28
2023-07-25T13:41:14.378Z,7.53
2023-07-25T13:43:42.706Z,5.90
2023-07-25T13:46:10.831Z,8.93
2023-07-25T13:48:39.404Z,6.05
2023-07-25T13:51:08.103Z,5.15
2023-07-25T13:53:36.355Z,6.00
2023-07-25T13:56:05.385Z,4.90
2023-07-25T13:58:33.721Z,4.68
2023-07-25T14:01:01.857Z,6.53
2023-07-25T14:03:31.609Z,6.88
2023-07-25T14:06:00.098Z,8.18
2023-07-25T14:08:28.114Z,12.93
2023-07-25T14:10:56.281Z,15.48
2023-07-25T14:13:24.552Z,10.63
2023-07-25T14:15:54.665Z,7.43
2023-07-25T14:18:24.069Z,6.57
2023-07-25T14:20:54.307Z,5.20
2023-07-25T14:23:23.904Z,7.45
2023-07-25T14:25:52.195Z,3.83
2023-07-25T14:28:20.297Z,4.82
2023-07-25T14:30:48.482Z,6.60
2023-07-25T14:33:18.448Z,4.72
2023-07-25T14:35:46.925Z,7.20
2023-07-25T14:38:16.184Z,6.50
2023-07-25T14:40:45.181Z,11.27
2023-07-25T14:43:13.431Z,8.93
2023-07-25T14:45:41.663Z,10.95
2023-07-25T14:48:09.740Z,6.85
2023-07-25T14:50:38.261Z,11.20
2023-07-25T14:53:07.152Z,6.15
2023-07-25T14:55:35.641Z,5.03
2023-07-25T14:58:04.596Z,6.07
2023-07-25T15:00:34.016Z,10.57
2023-07-25T15:03:02.158Z,8.40
2023-07-25T15:05:30.568Z,5.80
2023-07-25T15:07:58.640Z,9.27
2023-07-25T15:10:26.955Z,9.50
2023-07-25T15:12:56.430Z,8.93
2023-07-25T15:15:24.752Z,9.60
2023-07-25T15:17:53.865Z,9.00
2023-07-25T15:20:24.303Z,6.97
2023-07-25T15:22:52.574Z,9.07
2023-07-25T15:25:20.774Z,7.13
2023-07-25T15:27:49.090Z,12.32
2023-07-25T15:30:18.630Z,9.30
2023-07-25T15:32:46.768Z,9.20
2023-07-25T15:35:15.107Z,29.65
2023-07-25T15:37:43.139Z,10.82
2023-07-25T15:40:11.687Z,10.50
2023-07-25T15:42:40.082Z,9.50
2023-07-25T15:45:08.610Z,13.30
2023-07-25T15:47:36.697Z,15.20
2023-07-25T15:50:06.272Z,9.15
2023-07-25T15:52:34.537Z,9.23
2023-07-25T15:55:05.083Z,10.93
2023-07-25T15:57:33.356Z,6.87
2023-07-25T16:00:01.819Z,15.10
2023-07-25T16:02:29.889Z,10.60
2023-07-25T16:04:59.174Z,10.10
2023-07-25T16:07:27.375Z,10.82
2023-07-25T16:09:55.998Z,11.00
2023-07-25T16:12:24.538Z,9.50
2023-07-25T16:14:52.716Z,15.10
2023-07-25T16:17:20.744Z,12.18
2023-07-25T16:19:49.390Z,9.57
2023-07-25T16:22:18.774Z,10.60
2023-07-25T16:24:47.905Z,15.07
2023-07-25T16:27:16.498Z,19.13
2023-07-25T16:29:45.066Z,21.02
2023-07-25T16:32:13.165Z,10.73
2023-07-25T16:34:41.476Z,12.98
2023-07-25T16:37:09.800Z,10.95
2023-07-25T16:39:38.007Z,15.40
2023-07-25T16:42:06.515Z,13.93
2023-07-25T16:44:34.517Z,13.45
2023-07-25T16:47:02.712Z,11.65
2023-07-25T16:49:30.944Z,16.15
2023-07-25T16:51:59.299Z,13.27
2023-07-25T16:54:27.423Z,11.38
2023-07-25T16:56:55.601Z,12.07
2023-07-25T16:59:23.866Z,16.17
2023-07-25T17:01:52.101Z,11.52
2023-07-25T17:04:20.970Z,12.35
2023-07-25T17:06:49.729Z,11.05
2023-07-25T17:09:18.064Z,11.48
2023-07-25T17:11:46.320Z,12.00
2023-07-25T17:14:14.391Z,12.02
2023-07-25T17:16:42.595Z,9.05
2023-07-25T17:19:11.463Z,10.63
2023-07-25T17:21:41.343Z,12.63
2023-07-25T17:24:09.940Z,9.38
2023-07-25T17:26:38.760Z,9.77
2023-07-25T17:29:07.237Z,10.00
2023-07-25T17:31:35.640Z,9.45
2023-07-25T17:34:05.542Z,9.95
2023-07-25T17:36:34.268Z,6.43
2023-07-25T17:39:02.519Z,9.55
2023-07-25T17:41:31.365Z,7.45
2023-07-25T17:43:59.819Z,9.90
2023-07-25T17:46:27.944Z,7.70
2023-07-25T17:48:58.218Z,11.02
2023-07-25T17:51:26.922Z,10.77
2023-07-25T17:53:55.261Z,9.55
2023-07-25T17:56:24.501Z,6.30
2023-07-25T17:58:52.619Z,6.47
2023-07-25T18:01:20.673Z,7.03
2023-07-25T18:03:48.994Z,6.70
2023-07-25T18:06:17.334Z,8.52
2023-07-25T18:08:46.893Z,4.90
2023-07-25T18:11:15.443Z,6.32
2023-07-25T18:13:43.468Z,8.55
2023-07-25T18:16:11.619Z,4.63
2023-07-25T18:18:39.864Z,7.63
2023-07-25T18:21:10.073Z,5.47
2023-07-25T18:23:38.725Z,4.80
2023-07-25T18:26:09.847Z,8.63
2023-07-25T18:28:38.271Z,8.13
2023-07-25T18:31:06.487Z,4.65
2023-07-25T18:33:35.196Z,4.05
2023-07-25T18:36:03.247Z,5.38
2023-07-25T18:38:31.460Z,7.75
2023-07-25T18:40:59.790Z,5.30
2023-07-25T18:43:29.681Z,7.35
2023-07-25T18:45:58.324Z,6.47
2023-07-25T18:48:27.993Z,6.97
2023-07-25T18:50:56.129Z,8.82
2023-07-25T18:53:24.263Z,6.35
2023-07-25T18:55:53.119Z,7.65
2023-07-25T18:58:21.735Z,7.28
2023-07-25T19:00:50.588Z,7.75
2023-07-25T19:03:20.936Z,6.28
2023-07-25T19:05:53.994Z,7.93
2023-07-25T19:08:22.500Z,7.57
2023-07-25T19:10:51.361Z,5.38
2023-07-25T19:13:19.484Z,7.75
2023-07-25T19:15:49.843Z,8.57
2023-07-25T19:18:18.856Z,6.70
2023-07-25T19:20:47.025Z,5.70
2023-07-25T19:23:26.118Z,7.38
2023-07-25T19:26:02.474Z,4.25
2023-07-25T19:28:31.036Z,6.50
2023-07-25T19:31:00.456Z,6.03
2023-07-25T19:33:29.471Z,5.78
2023-07-25T19:36:00.287Z,5.20
2023-07-25T19:38:32.319Z,7.80
2023-07-25T19:41:02.320Z,5.38
2023-07-25T19:43:30.986Z,10.93
2023-07-25T19:46:05.211Z,5.13
2023-07-25T19:48:33.779Z,5.97
2023-07-25T19:51:16.070Z,3.45
2023-07-25T19:53:44.509Z,3.90
2023-07-25T19:56:12.950Z,4.80
2023-07-25T19:58:41.528Z,3.55
2023-07-25T20:01:13.258Z,9.23
2023-07-25T20:03:42.084Z,3.75
2023-07-25T20:06:11.059Z,3.13
2023-07-25T20:08:39.479Z,4.47
2023-07-25T20:11:08.769Z,4.95
2023-07-25T20:13:37.642Z,4.68
2023-07-25T20:16:06.475Z,5.20
2023-07-25T20:18:34.842Z,4.57
2023-07-25T20:21:11.252Z,4.03
2023-07-25T20:23:40.060Z,4.15
2023-07-25T20:26:09.236Z,6.28
2023-07-25T20:28:37.587Z,5.68
2023-07-25T20:31:06.091Z,5.13
2023-07-25T20:33:35.779Z,5.32
2023-07-25T20:36:04.542Z,4.55
2023-07-25T20:38:34.059Z,4.05
2023-07-25T20:41:04.400Z,6.63
2023-07-25T20:43:32.824Z,5.13
2023-07-25T20:46:05.001Z,7.60
2023-07-25T20:48:33.914Z,4.35
2023-07-25T20:51:04.042Z,6.53
2023-07-25T20:53:32.318Z,5.93
2023-07-25T20:56:02.649Z,6.75
2023-07-25T20:58:31.722Z,6.32
2023-07-25T21:01:00.167Z,4.90
2023-07-25T21:03:29.451Z,5.35
2023-07-25T21:05:57.927Z,5.78
2023-07-25T21:08:27.622Z,6.32
2023-07-25T21:10:57.906Z,5.30
2023-07-25T21:13:26.466Z,6.05
2023-07-25T21:15:55.377Z,8.73
2023-07-25T21:18:24.144Z,7.40
2023-07-25T21:20:52.899Z,8.68
2023-07-25T21:23:26.971Z,11.23
2023-07-25T21:25:55.918Z,10.15
2023-07-25T21:28:24.069Z,7.85
2023-07-25T21:30:52.651Z,8.38
2023-07-25T21:33:21.163Z,9.45
2023-07-25T21:35:50.976Z,7.97
2023-07-25T21:38:19.346Z,5.93
2023-07-25T21:40:47.778Z,12.98
2023-07-25T21:43:15.968Z,7.63
2023-07-25T21:45:44.511Z,10.88
2023-07-25T21:48:13.160Z,10.30
2023-07-25T21:50:41.561Z,16.33
2023-07-25T21:53:10.033Z,15.60
2023-07-25T21:55:38.279Z,12.90
2023-07-25T21:58:07.178Z,9.38
2023-07-25T22:00:35.547Z,15.95
2023-07-25T22:03:04.008Z,11.55
2023-07-25T22:05:32.141Z,14.77
2023-07-25T22:08:00.718Z,18.40
2023-07-25T22:10:29.219Z,17.73
2023-07-25T22:12:57.548Z,16.15
2023-07-25T22:15:26.010Z,14.00
2023-07-25T22:17:55.536Z,17.63
2023-07-25T22:20:25.813Z,15.55
2023-07-25T22:22:56.428Z,16.27
2023-07-25T22:25:24.740Z,16.25
2023-07-25T22:27:54.603Z,13.57
2023-07-25T22:30:23.909Z,13.30
2023-07-25T22:32:51.981Z,10.23
2023-07-25T22:35:20.629Z,11.10
2023-07-25T22:38:03.939Z,11.75
2023-07-25T22:40:32.426Z,16.33
2023-07-25T22:43:01.630Z,12.77
2023-07-25T22:45:31.030Z,8.20
2023-07-25T22:48:00.008Z,12.73
2023-07-25T22:50:28.208Z,11.05
2023-07-25T22:52:56.588Z,15.00
2023-07-25T22:55:24.741Z,7.30
2023-07-25T22:57:52.888Z,8.75
2023-07-25T23:00:21.328Z,7.00
2023-07-25T23:02:51.143Z,5.80
2023-07-25T23:05:19.523Z,17.83
2023-07-25T23:07:47.854Z,7.80
2023-07-25T23:10:16.727Z,10.00
2023-07-25T23:12:45.432Z,8.68
2023-07-25T23:15:14.968Z,13.23
2023-07-25T23:17:43.343Z,10.82
2023-07-25T23:20:12.577Z,10.43
2023-07-25T23:22:41.146Z,10.57
2023-07-25T23:25:09.591Z,9.05
2023-07-25T23:27:38.523Z,12.35
2023-07-25T23:30:07.672Z,8.70
2023-07-25T23:32:35.896Z,9.18
2023-07-25T23:35:04.305Z,6.85
2023-07-25T23:37:32.696Z,9.00
2023-07-25T23:40:00.892Z,8.93
2023-07-25T23:42:29.256Z,8.70
2023-07-25T23:44:57.693Z,15.85
2023-07-25T23:47:25.970Z,13.38
2023-07-25T23:49:54.391Z,9.20
2023-07-25T23:52:22.902Z,8.27
2023-07-25T23:54:51.260Z,9.98
2023-07-25T23:57:19.780Z,9.65
2023-07-25T23:59:48.029Z,12.10
